Time;durP1;ratioP1;P1;durP2;ratioP2;P2;SDS_P1;SDS_P2;PMS_P1;PMS_P2;Temp;Humidity;BMP_temperature;BMP_pressure;BME280_temperature;BME280_humidity;BME280_pressure;Samples;Min_cycle;Max_cycle;Signal;HPM_P1;HPM_P2
2021/04/12 00:00:23;;;;;;;3.08;1.00;;;5.80;99.90;;;;;;5055157;28;20222;-77
2021/04/12 00:03:13;;;;;;;2.00;1.50;;;5.90;99.90;;;;;;5054961;28;20559;-78
2021/04/12 00:06:05;;;;;;;2.17;1.10;;;5.80;99.90;;;;;;5054840;28;20165;-77
2021/04/12 00:08:55;;;;;;;1.98;1.20;;;5.80;99.90;;;;;;5054438;28;20197;-78
2021/04/12 00:11:38;;;;;;;2.78;1.60;;;5.80;99.90;;;;;;5054778;28;20176;-78
2021/04/12 00:14:27;;;;;;;3.38;1.20;;;5.80;99.90;;;;;;5040788;28;20180;-78
2021/04/12 00:17:19;;;;;;;1.30;1.10;;;5.80;99.90;;;;;;5036358;28;20687;-77
2021/04/12 00:20:09;;;;;;;2.40;1.27;;;5.80;99.90;;;;;;5056801;28;20177;-78
2021/04/12 00:22:47;;;;;;;2.40;1.30;;;5.80;99.90;;;;;;5064022;28;20246;-77
2021/04/12 00:25:30;;;;;;;3.10;2.17;;;5.80;99.90;;;;;;5054595;28;20172;-78
2021/04/12 00:28:02;;;;;;;3.53;1.55;;;5.80;99.90;;;;;;5054197;28;20604;-79
2021/04/12 00:30:43;;;;;;;2.53;1.15;;;5.80;99.90;;;;;;5054360;28;20173;-79
2021/04/12 00:33:16;;;;;;;2.10;1.23;;;5.80;99.90;;;;;;5054391;28;20230;-79
2021/04/12 00:35:46;;;;;;;3.40;1.55;;;5.80;99.90;;;;;;5054892;28;20227;-78
2021/04/12 00:38:16;;;;;;;5.38;1.30;;;5.80;99.90;;;;;;5054002;28;20193;-79
2021/04/12 00:41:01;;;;;;;3.40;1.65;;;5.70;99.90;;;;;;5036146;28;20173;-79
2021/04/12 00:43:46;;;;;;;2.65;1.42;;;5.70;99.90;;;;;;5054245;28;20184;-78
2021/04/12 00:46:36;;;;;;;2.10;1.38;;;5.70;99.90;;;;;;5054142;28;20524;-79
2021/04/12 00:49:19;;;;;;;2.92;1.15;;;5.70;99.90;;;;;;5036845;28;20165;-78
2021/04/12 00:52:03;;;;;;;2.78;1.02;;;5.70;99.90;;;;;;5057287;28;20596;-78
2021/04/12 00:54:52;;;;;;;1.95;1.40;;;5.70;99.90;;;;;;5054226;28;20176;-78
2021/04/12 00:57:27;;;;;;;1.63;1.30;;;5.70;99.90;;;;;;5053607;28;20193;-78
2021/04/12 01:00:07;;;;;;;2.97;1.10;;;5.70;99.90;;;;;;5053898;28;20544;-78
2021/04/12 01:03:03;;;;;;;2.42;1.65;;;5.70;99.90;;;;;;5036101;28;20211;-78
2021/04/12 01:05:50;;;;;;;2.30;1.80;;;5.60;99.90;;;;;;5036131;28;20161;-79
2021/04/12 01:08:27;;;;;;;3.75;2.08;;;5.60;99.90;;;;;;5053324;28;20185;-79
2021/04/12 01:11:18;;;;;;;3.88;1.30;;;5.60;99.90;;;;;;5053717;28;20173;-79
2021/04/12 01:13:52;;;;;;;1.73;1.35;;;5.60;99.90;;;;;;5054498;28;20157;-78
2021/04/12 01:16:37;;;;;;;2.65;1.50;;;5.60;99.90;;;;;;5053024;28;20175;-78
2021/04/12 01:19:42;;;;;;;3.58;1.58;;;5.60;99.90;;;;;;5053800;28;20231;-78
2021/04/12 01:22:31;;;;;;;1.80;1.20;;;5.60;99.90;;;;;;5053460;28;20254;-77
2021/04/12 01:25:48;;;;;;;2.65;1.23;;;5.60;99.90;;;;;;5055686;28;20176;-79
2021/04/12 01:28:55;;;;;;;2.10;1.58;;;5.60;99.90;;;;;;5029394;28;20200;-76
2021/04/12 01:31:58;;;;;;;3.05;1.30;;;5.50;99.90;;;;;;5055289;28;20173;-77
2021/04/12 01:34:37;;;;;;;3.15;1.85;;;5.60;99.90;;;;;;5073254;28;20219;-78
2021/04/12 01:37:27;;;;;;;4.20;1.30;;;5.50;99.90;;;;;;5072838;28;20248;-77
2021/04/12 01:40:12;;;;;;;2.35;1.50;;;5.50;99.90;;;;;;5073048;28;20164;-78
2021/04/12 01:43:05;;;;;;;2.35;1.80;;;5.50;99.90;;;;;;5072449;28;20207;-75
2021/04/12 01:45:57;;;;;;;2.60;1.25;;;5.50;99.90;;;;;;5055212;28;20194;-77
2021/04/12 01:49:01;;;;;;;1.73;1.40;;;5.50;99.90;;;;;;5072609;28;20275;-78
2021/04/12 01:51:59;;;;;;;1.95;1.75;;;5.40;99.90;;;;;;5073010;28;20495;-78
2021/04/12 01:54:25;;;;;;;1.77;1.38;;;5.40;99.90;;;;;;5072950;28;20168;-78
2021/04/12 01:57:11;;;;;;;1.90;1.60;;;5.40;99.90;;;;;;5072251;28;20191;-78
2021/04/12 02:00:04;;;;;;;3.95;1.75;;;5.40;99.90;;;;;;5055063;28;20172;-78
2021/04/12 02:02:52;;;;;;;2.20;1.52;;;5.30;99.90;;;;;;5072679;28;20234;-78
2021/04/12 02:05:38;;;;;;;2.00;1.30;;;5.30;99.90;;;;;;5075165;28;20240;-78
2021/04/12 02:08:33;;;;;;;2.55;1.40;;;5.30;99.90;;;;;;5072260;28;20188;-77
2021/04/12 02:11:17;;;;;;;4.03;1.45;;;5.30;99.90;;;;;;5072969;28;20329;-78
2021/04/12 02:14:04;;;;;;;4.82;2.00;;;5.20;99.90;;;;;;5083958;28;20170;-78
2021/04/12 02:17:02;;;;;;;2.38;1.58;;;5.20;99.90;;;;;;5072872;28;20217;-77
2021/04/12 02:19:40;;;;;;;5.25;1.70;;;5.20;99.90;;;;;;5000545;28;20176;-77
2021/04/12 02:22:44;;;;;;;2.83;2.20;;;5.20;99.90;;;;;;5054754;28;20204;-78
2021/04/12 02:25:32;;;;;;;3.35;1.65;;;5.20;99.90;;;;;;5027376;28;20263;-77
2021/04/12 02:28:35;;;;;;;2.67;1.90;;;5.20;99.90;;;;;;5071820;28;20231;-77
2021/04/12 02:31:21;;;;;;;1.90;1.60;;;5.20;99.90;;;;;;5072166;28;20188;-78
2021/04/12 02:34:04;;;;;;;3.00;2.05;;;5.20;99.90;;;;;;5054393;28;20637;-77
2021/04/12 02:36:55;;;;;;;4.35;1.90;;;5.20;99.90;;;;;;5053695;28;20172;-78
2021/04/12 02:39:35;;;;;;;2.67;1.60;;;5.20;99.90;;;;;;5072148;28;20668;-77
2021/04/12 02:42:35;;;;;;;3.85;1.85;;;5.20;99.90;;;;;;5073854;28;20198;-78
2021/04/12 02:45:14;;;;;;;4.15;2.20;;;5.20;99.90;;;;;;5054265;28;20164;-77
2021/04/12 02:48:17;;;;;;;3.50;2.08;;;5.20;99.90;;;;;;5071554;28;20188;-77
2021/04/12 02:51:03;;;;;;;2.92;2.28;;;5.10;99.90;;;;;;5071829;28;20164;-78
2021/04/12 02:53:56;;;;;;;2.85;1.83;;;5.10;99.90;;;;;;5054063;28;20165;-77
2021/04/12 02:56:39;;;;;;;3.53;2.47;;;5.10;99.90;;;;;;5071660;28;20168;-77
2021/04/12 02:59:33;;;;;;;3.85;2.40;;;5.10;99.90;;;;;;5053876;28;20170;-77
2021/04/12 03:02:17;;;;;;;3.90;2.90;;;5.10;99.90;;;;;;5029026;28;20249;-77
2021/04/12 03:05:15;;;;;;;3.22;2.47;;;5.10;99.90;;;;;;5053939;28;20261;-78
2021/04/12 03:08:05;;;;;;;2.65;2.30;;;5.10;99.90;;;;;;5053797;28;20187;-78
2021/04/12 03:10:54;;;;;;;8.52;3.60;;;5.10;99.90;;;;;;5072195;28;20165;-77
2021/04/12 03:13:38;;;;;;;4.10;3.17;;;5.10;99.90;;;;;;5045632;28;20191;-77
2021/04/12 03:16:32;;;;;;;4.68;3.40;;;5.10;99.90;;;;;;5034346;28;20168;-78
2021/04/12 03:19:23;;;;;;;5.03;2.70;;;5.10;99.90;;;;;;5034771;28;20176;-78
2021/04/12 03:22:22;;;;;;;4.28;2.90;;;5.10;99.90;;;;;;5055475;28;20203;-77
2021/04/12 03:25:14;;;;;;;3.42;2.35;;;5.00;99.90;;;;;;5051684;28;20298;-78
2021/04/12 03:27:52;;;;;;;6.88;3.40;;;5.00;99.90;;;;;;5033416;28;20570;-77
2021/04/12 03:30:56;;;;;;;3.47;3.17;;;5.00;99.90;;;;;;5033790;28;20263;-78
2021/04/12 03:33:33;;;;;;;4.50;3.17;;;5.00;99.90;;;;;;5051461;28;20165;-78
2021/04/12 03:36:23;;;;;;;4.03;3.55;;;4.90;99.90;;;;;;5033534;28;20169;-78
2021/04/12 03:38:59;;;;;;;7.78;4.53;;;4.90;99.90;;;;;;5051467;28;20165;-78
2021/04/12 03:41:40;;;;;;;6.10;4.90;;;4.90;99.90;;;;;;5051500;28;20676;-76
2021/04/12 03:44:51;;;;;;;6.80;4.15;;;4.80;99.90;;;;;;5033744;28;20602;-77
2021/04/12 03:47:51;;;;;;;7.15;4.80;;;4.80;99.90;;;;;;5052399;28;20201;-77
2021/04/12 03:50:30;;;;;;;3.83;3.22;;;4.80;99.90;;;;;;5034237;28;20180;-77
2021/04/12 03:53:10;;;;;;;3.50;2.55;;;4.80;99.90;;;;;;5051348;28;20287;-79
2021/04/12 03:55:51;;;;;;;5.65;2.88;;;4.70;99.90;;;;;;5033998;28;20177;-79
2021/04/12 03:58:54;;;;;;;3.28;2.97;;;4.70;99.90;;;;;;5054152;28;20207;-78
2021/04/12 04:01:22;;;;;;;2.55;2.10;;;4.70;99.90;;;;;;5051413;28;20181;-78
2021/04/12 04:04:10;;;;;;;2.65;2.05;;;4.70;99.90;;;;;;5033573;28;20614;-79
2021/04/12 04:06:51;;;;;;;3.17;2.35;;;4.70;99.90;;;;;;5053030;28;20633;-78
2021/04/12 04:09:41;;;;;;;3.00;2.15;;;4.60;99.90;;;;;;5054967;28;20176;-77
2021/04/12 04:12:37;;;;;;;3.63;2.15;;;4.60;99.90;;;;;;5037730;28;20252;-78
2021/04/12 04:15:27;;;;;;;3.00;1.95;;;4.60;99.90;;;;;;5055352;28;20786;-78
2021/04/12 04:18:12;;;;;;;3.75;2.53;;;4.60;99.90;;;;;;5038464;28;20272;-78
2021/04/12 04:20:59;;;;;;;2.67;2.17;;;4.60;99.90;;;;;;5039506;28;20595;-79
2021/04/12 04:23:56;;;;;;;4.25;2.50;;;4.60;99.90;;;;;;5039851;28;20227;-78
2021/04/12 04:26:22;;;;;;;5.35;2.08;;;4.50;99.90;;;;;;5041775;28;20658;-78
2021/04/12 04:28:47;;;;;;;6.57;2.60;;;4.50;99.90;;;;;;5055073;28;20193;-78
2021/04/12 04:31:51;;;;;;;4.27;2.33;;;4.50;99.90;;;;;;5037180;28;20192;-78
2021/04/12 04:34:28;;;;;;;3.97;2.15;;;4.50;99.90;;;;;;5057711;28;20509;-78
2021/04/12 04:37:08;;;;;;;3.00;2.50;;;4.50;99.90;;;;;;5036428;28;20284;-78
2021/04/12 04:39:42;;;;;;;3.90;2.25;;;4.50;99.90;;;;;;5057607;28;20165;-77
2021/04/12 04:42:30;;;;;;;3.78;2.80;;;4.40;99.90;;;;;;5054240;28;20283;-77
2021/04/12 04:45:04;;;;;;;3.72;1.98;;;4.40;99.90;;;;;;5036510;28;20175;-78
2021/04/12 04:47:36;;;;;;;3.80;2.78;;;4.40;99.90;;;;;;5054135;28;20192;-78
2021/04/12 04:50:05;;;;;;;4.30;2.85;;;4.40;99.90;;;;;;5054501;28;20173;-78
2021/04/12 04:52:49;;;;;;;3.28;2.35;;;4.40;99.90;;;;;;5054539;28;20308;-78
2021/04/12 04:55:23;;;;;;;3.70;2.80;;;4.40;99.90;;;;;;5036403;28;20645;-79
2021/04/12 04:58:11;;;;;;;8.32;3.63;;;4.30;99.90;;;;;;5053640;28;20207;-79
2021/04/12 05:00:51;;;;;;;2.90;2.40;;;4.30;99.90;;;;;;5036205;28;20618;-78
2021/04/12 05:03:53;;;;;;;2.88;2.17;;;4.30;99.90;;;;;;5053779;28;20231;-78
2021/04/12 05:06:31;;;;;;;5.63;2.90;;;4.30;99.90;;;;;;5013206;28;20306;-79
2021/04/12 05:09:47;;;;;;;5.15;3.08;;;4.30;99.90;;;;;;5036172;28;20177;-78
2021/04/12 05:12:33;;;;;;;3.65;2.00;;;4.30;99.90;;;;;;4956764;29;20192;-79
2021/04/12 05:15:17;;;;;;;3.13;2.70;;;4.30;99.90;;;;;;4953472;29;20176;-78
2021/04/12 05:17:57;;;;;;;3.28;2.53;;;4.20;99.90;;;;;;5025110;28;20553;-78
2021/04/12 05:20:43;;;;;;;4.50;2.65;;;4.20;99.90;;;;;;5019264;28;20264;-78
2021/04/12 05:23:50;;;;;;;4.32;3.08;;;4.20;99.90;;;;;;5053489;28;20192;-77
2021/04/12 05:26:22;;;;;;;3.58;3.08;;;4.30;99.90;;;;;;5053053;28;20175;-78
2021/04/12 05:29:09;;;;;;;7.07;3.30;;;4.20;99.90;;;;;;5053338;28;20172;-80
2021/04/12 05:32:00;;;;;;;5.38;4.10;;;4.30;99.90;;;;;;5035582;28;20165;-78
2021/04/12 05:34:32;;;;;;;4.65;3.67;;;4.20;99.90;;;;;;5035611;28;20169;-79
2021/04/12 05:37:32;;;;;;;5.53;3.88;;;4.30;99.90;;;;;;5035113;28;20208;-79
2021/04/12 05:40:32;;;;;;;5.10;3.97;;;4.30;99.90;;;;;;5035628;28;20181;-78
2021/04/12 05:43:26;;;;;;;5.43;4.05;;;4.30;99.90;;;;;;5053000;28;20200;-78
2021/04/12 05:46:10;;;;;;;9.23;4.53;;;4.40;99.90;;;;;;5035555;28;20177;-78
2021/04/12 05:49:06;;;;;;;5.35;4.78;;;4.40;99.90;;;;;;5056315;28;20189;-77
2021/04/12 05:52:02;;;;;;;7.55;4.38;;;4.50;99.90;;;;;;5053782;28;20637;-78
2021/04/12 05:55:00;;;;;;;6.72;4.78;;;4.60;99.90;;;;;;5052872;28;20165;-78
2021/04/12 05:58:01;;;;;;;7.38;4.80;;;4.60;99.90;;;;;;5034560;28;20254;-78
2021/04/12 06:00:32;;;;;;;4.20;3.80;;;4.70;99.90;;;;;;5053058;28;20176;-78
2021/04/12 06:03:28;;;;;;;5.90;5.30;;;4.80;99.90;;;;;;5035079;28;20609;-79
2021/04/12 06:06:18;;;;;;;5.82;4.15;;;4.80;99.90;;;;;;5018470;28;20637;-78
2021/04/12 06:09:22;;;;;;;4.28;3.88;;;4.90;99.90;;;;;;5053392;28;20565;-78
2021/04/12 06:12:24;;;;;;;4.97;4.47;;;5.00;99.90;;;;;;4951153;28;20722;-80
2021/04/12 06:15:11;;;;;;;6.53;5.80;;;5.10;99.90;;;;;;4953202;29;20176;-80
2021/04/12 06:17:54;;;;;;;4.28;3.88;;;5.20;99.90;;;;;;5041329;28;20213;-79
2021/04/12 06:20:31;;;;;;;6.72;5.30;;;5.30;99.90;;;;;;5038598;28;20199;-81
2021/04/12 06:23:00;;;;;;;13.20;5.63;;;5.40;99.90;;;;;;5053363;28;20227;-80
2021/04/12 06:26:08;;;;;;;7.50;4.15;;;5.60;99.90;;;;;;5038953;28;20161;-80
2021/04/12 06:28:43;;;;;;;4.65;4.25;;;5.70;99.90;;;;;;5052113;28;20309;-82
2021/04/12 06:31:38;;;;;;;5.15;4.75;;;5.90;99.90;;;;;;5052552;28;20171;-81
2021/04/12 06:34:42;;;;;;;5.40;4.90;;;6.10;99.90;;;;;;5052901;28;20165;-80
2021/04/12 06:37:40;;;;;;;7.15;6.55;;;6.60;99.90;;;;;;5051964;28;20195;-81
2021/04/12 06:40:42;;;;;;;5.38;4.88;;;7.30;99.90;;;;;;5018342;28;20703;-84
2021/04/12 06:43:55;;;;;;;7.15;4.68;;;7.90;99.90;;;;;;5034471;28;20801;-81
2021/04/12 06:47:05;;;;;;;4.97;4.47;;;8.50;99.90;;;;;;5033248;28;20185;-82
2021/04/12 06:50:04;;;;;;;6.60;4.72;;;9.00;99.90;;;;;;5022134;28;20169;-81
2021/04/12 06:52:51;;;;;;;5.40;4.40;;;9.40;99.90;;;;;;5052670;28;20161;-79
2021/04/12 06:55:20;;;;;;;8.75;5.45;;;9.70;99.90;;;;;;5036171;28;20169;-81
2021/04/12 06:57:51;;;;;;;5.95;5.10;;;10.20;99.90;;;;;;5061624;28;20198;-82
2021/04/12 07:00:57;;;;;;;6.95;5.25;;;10.60;99.90;;;;;;5067492;28;20176;-80
2021/04/12 07:04:00;;;;;;;5.28;4.78;;;11.20;99.90;;;;;;5075522;28;20621;-81
2021/04/12 07:07:00;;;;;;;6.57;5.93;;;11.40;99.90;;;;;;5037703;28;20171;-81
2021/04/12 07:09:45;;;;;;;6.30;4.93;;;11.40;99.90;;;;;;5053880;28;20628;-81
2021/04/12 07:12:40;;;;;;;6.28;4.88;;;11.20;99.90;;;;;;5073283;28;20642;-81
2021/04/12 07:15:18;;;;;;;5.43;4.55;;;10.90;99.90;;;;;;5071496;28;20605;-83
2021/04/12 07:18:17;;;;;;;4.78;4.38;;;10.60;99.90;;;;;;5053972;28;20287;-83
2021/04/12 07:21:25;;;;;;;4.57;4.03;;;10.30;99.90;;;;;;5072409;28;20185;-83
2021/04/12 07:24:09;;;;;;;5.05;4.55;;;10.10;99.90;;;;;;5072269;28;20191;-82
2021/04/12 07:27:02;;;;;;;5.45;4.95;;;9.80;99.90;;;;;;5071352;28;20195;-83
2021/04/12 07:30:06;;;;;;;6.10;5.00;;;9.60;99.90;;;;;;5055506;28;20169;-82
2021/04/12 07:33:09;;;;;;;6.65;4.78;;;9.50;99.90;;;;;;5045942;28;20190;-78
2021/04/12 07:35:50;;;;;;;5.10;4.60;;;9.30;99.90;;;;;;5046359;28;20318;-79
2021/04/12 07:39:01;;;;;;;5.70;5.20;;;9.20;99.90;;;;;;5054849;28;20196;-80
2021/04/12 07:41:54;;;;;;;5.88;5.40;;;9.20;99.90;;;;;;5068259;28;20235;-80
2021/04/12 07:44:41;;;;;;;6.28;5.00;;;9.20;99.90;;;;;;5059252;28;20171;-79
2021/04/12 07:47:40;;;;;;;6.38;5.03;;;9.30;99.90;;;;;;5077184;28;20184;-81
2021/04/12 07:50:36;;;;;;;6.55;6.03;;;9.40;99.90;;;;;;5061201;28;20195;-82
2021/04/12 07:53:41;;;;;;;7.15;6.18;;;9.60;99.90;;;;;;5077129;28;20176;-82
2021/04/12 07:56:31;;;;;;;7.15;5.78;;;9.60;99.90;;;;;;5067840;28;20174;-83
2021/04/12 07:59:26;;;;;;;7.25;5.45;;;9.50;99.90;;;;;;5076225;28;20282;-83
2021/04/12 08:02:28;;;;;;;9.48;6.93;;;9.40;99.90;;;;;;5074928;28;20196;-76
2021/04/12 08:05:31;;;;;;;7.78;6.72;;;9.30;99.90;;;;;;5051012;28;20269;-79
2021/04/12 08:08:40;;;;;;;6.80;5.90;;;9.20;99.90;;;;;;5058718;28;20278;-84
2021/04/12 08:11:33;;;;;;;6.80;6.10;;;9.10;99.90;;;;;;5074347;28;20585;-77
2021/04/12 08:14:17;;;;;;;10.70;7.75;;;9.10;99.90;;;;;;5047339;28;20181;-77
2021/04/12 08:17:27;;;;;;;8.15;7.32;;;9.00;99.90;;;;;;5068457;28;20547;-79
2021/04/12 08:20:17;;;;;;;7.50;6.88;;;9.00;99.90;;;;;;5037348;28;20197;-78
2021/04/12 08:23:17;;;;;;;9.35;8.55;;;9.00;99.90;;;;;;5036560;28;20219;-77
2021/04/12 08:26:10;;;;;;;9.23;8.35;;;8.90;99.90;;;;;;5054736;28;20165;-78
2021/04/12 08:28:45;;;;;;;7.43;6.75;;;8.80;99.90;;;;;;5053630;28;20208;-78
2021/04/12 08:31:32;;;;;;;7.07;6.45;;;8.80;99.90;;;;;;5054655;28;20173;-76
2021/04/12 08:34:23;;;;;;;7.88;7.18;;;8.80;99.90;;;;;;5054185;28;20207;-77
2021/04/12 08:37:24;;;;;;;7.70;7.00;;;8.80;99.90;;;;;;5053662;28;20550;-78
2021/04/12 08:40:23;;;;;;;7.55;6.90;;;8.90;99.90;;;;;;5036601;28;20165;-77
2021/04/12 08:42:58;;;;;;;8.25;7.45;;;8.90;99.90;;;;;;5020373;28;20700;-78
2021/04/12 08:46:00;;;;;;;7.80;7.10;;;8.90;99.90;;;;;;5068221;28;20168;-79
2021/04/12 08:48:35;;;;;;;10.07;5.75;;;8.90;99.90;;;;;;5072020;28;20269;-79
2021/04/12 08:51:13;;;;;;;7.22;6.53;;;9.00;99.90;;;;;;5075521;28;20187;-80
2021/04/12 08:54:03;;;;;;;7.07;6.32;;;9.00;99.90;;;;;;5076308;28;20604;-79
2021/04/12 08:56:43;;;;;;;4.85;4.45;;;9.10;99.90;;;;;;5077976;28;20161;-80
2021/04/12 08:59:58;;;;;;;6.68;6.03;;;9.30;99.90;;;;;;5057022;28;20214;-77
2021/04/12 09:02:58;;;;;;;5.53;5.05;;;9.90;99.90;;;;;;5039685;28;20212;-77
2021/04/12 09:05:53;;;;;;;4.43;4.00;;;10.50;99.90;;;;;;5073960;28;20179;-76
2021/04/12 09:08:42;;;;;;;5.35;4.05;;;11.00;99.90;;;;;;5039316;28;20223;-77
2021/04/12 09:11:33;;;;;;;6.45;5.80;;;11.60;99.90;;;;;;5074209;28;20192;-77
2021/04/12 09:14:21;;;;;;;5.65;5.10;;;12.00;99.90;;;;;;5074361;28;20172;-77
2021/04/12 09:17:12;;;;;;;7.18;5.57;;;12.20;99.90;;;;;;5055327;28;20199;-77
2021/04/12 09:19:59;;;;;;;6.38;5.88;;;12.40;99.90;;;;;;5042660;28;20292;-76
2021/04/12 09:22:27;;;;;;;5.75;5.25;;;12.60;99.90;;;;;;5057923;28;20227;-78
2021/04/12 09:25:26;;;;;;;5.00;4.60;;;13.10;99.90;;;;;;5061135;28;20195;-77
2021/04/12 09:28:13;;;;;;;5.07;4.78;;;13.50;99.90;;;;;;5066469;28;20204;-77
2021/04/12 09:31:00;;;;;;;5.70;5.20;;;13.70;99.90;;;;;;5036706;28;20300;-76
2021/04/12 09:34:00;;;;;;;6.18;5.68;;;13.80;99.90;;;;;;5084071;28;20180;-77
2021/04/12 09:36:53;;;;;;;5.90;4.82;;;13.70;99.90;;;;;;5084483;28;20169;-77
2021/04/12 09:39:41;;;;;;;5.45;5.05;;;13.70;99.90;;;;;;5060852;28;20168;-76
2021/04/12 09:42:26;;;;;;;6.13;5.53;;;13.80;99.90;;;;;;5081141;28;20208;-77
2021/04/12 09:45:13;;;;;;;5.57;5.07;;;14.00;99.90;;;;;;5059819;28;20180;-76
2021/04/12 09:48:12;;;;;;;5.93;5.32;;;14.10;99.90;;;;;;5055242;28;20196;-78
2021/04/12 09:51:06;;;;;;;8.55;5.63;;;14.20;99.90;;;;;;5055483;28;20570;-78
2021/04/12 09:54:02;;;;;;;7.47;4.53;;;14.20;99.90;;;;;;5055332;28;20628;-79
2021/04/12 09:57:04;;;;;;;5.05;4.60;;;14.10;99.90;;;;;;5070753;28;20186;-76
2021/04/12 09:59:48;;;;;;;3.67;3.38;;;13.90;99.90;;;;;;5055014;28;20179;-77
2021/04/12 10:02:23;;;;;;;3.45;2.88;;;13.70;99.90;;;;;;5072789;28;20246;-77
2021/04/12 10:05:06;;;;;;;3.38;3.08;;;13.40;99.90;;;;;;5071954;28;20192;-76
2021/04/12 10:08:09;;;;;;;3.47;3.15;;;13.00;99.90;;;;;;5054252;28;20753;-77
2021/04/12 10:11:00;;;;;;;4.47;3.50;;;12.70;99.90;;;;;;5054323;28;20251;-78
2021/04/12 10:13:42;;;;;;;7.47;4.15;;;12.60;99.90;;;;;;5034825;28;20198;-79
2021/04/12 10:16:21;;;;;;;5.68;3.75;;;12.30;99.90;;;;;;5052514;28;20529;-78
2021/04/12 10:19:15;;;;;;;4.72;3.80;;;12.10;99.90;;;;;;5052603;28;20207;-77
2021/04/12 10:22:10;;;;;;;4.57;3.15;;;11.80;99.90;;;;;;5034585;28;20211;-78
2021/04/12 10:25:02;;;;;;;1.88;1.67;;;11.50;99.90;;;;;;5052278;28;20597;-77
2021/04/12 10:27:40;;;;;;;1.38;1.10;;;11.20;99.90;;;;;;5052143;28;20216;-79
2021/04/12 10:30:27;;;;;;;1.95;1.85;;;10.80;99.90;;;;;;5034335;28;20197;-77
2021/04/12 10:32:58;;;;;;;4.95;2.30;;;10.40;99.90;;;;;;5051997;28;20172;-78
2021/04/12 10:35:43;;;;;;;5.80;2.30;;;10.10;99.90;;;;;;5034346;28;20222;-78
2021/04/12 10:38:45;;;;;;;2.85;1.83;;;9.70;99.90;;;;;;5051893;28;20196;-79
2021/04/12 10:41:27;;;;;;;2.83;2.63;;;9.40;99.90;;;;;;4990750;28;20618;-79
2021/04/12 10:44:23;;;;;;;3.78;2.85;;;9.20;99.90;;;;;;5046276;28;20223;-80
2021/04/12 10:47:06;;;;;;;4.47;3.47;;;9.10;99.90;;;;;;5037931;28;20559;-79
2021/04/12 10:50:12;;;;;;;4.80;4.30;;;9.00;99.90;;;;;;5019167;28;20517;-78
2021/04/12 10:53:25;;;;;;;6.70;5.03;;;8.90;99.90;;;;;;5052620;28;20173;-78
2021/04/12 10:56:03;;;;;;;7.30;5.50;;;8.90;99.90;;;;;;5024831;28;20235;-78
2021/04/12 10:58:50;;;;;;;6.95;6.25;;;8.90;99.90;;;;;;5067616;28;20582;-78
2021/04/12 11:01:50;;;;;;;8.93;6.93;;;9.00;99.90;;;;;;5050281;28;20180;-78
2021/04/12 11:04:49;;;;;;;4.00;3.60;;;9.30;99.90;;;;;;5018852;28;20173;-78
2021/04/12 11:07:38;;;;;;;3.15;2.45;;;10.00;99.90;;;;;;5081116;23;20677;-84
2021/04/12 11:10:21;;;;;;;3.25;2.40;;;10.80;99.90;;;;;;5100214;28;20635;-85
2021/04/12 11:13:07;;;;;;;2.35;1.63;;;11.70;99.90;;;;;;5109401;28;20182;-85
2021/04/12 11:15:53;;;;;;;3.08;1.90;;;12.40;99.90;;;;;;5112035;28;20220;-85
2021/04/12 11:18:31;;;;;;;2.13;1.65;;;12.80;99.90;;;;;;5095679;28;20171;-85
2021/04/12 11:21:02;;;;;;;3.75;1.80;;;13.00;99.90;;;;;;5095457;28;20600;-81
2021/04/12 11:23:37;;;;;;;2.30;1.30;;;13.10;99.90;;;;;;5102744;28;20739;-80
2021/04/12 11:26:12;;;;;;;1.30;0.90;;;12.90;99.90;;;;;;5094607;28;20183;-80
2021/04/12 11:28:53;;;;;;;1.90;0.73;;;12.50;99.90;;;;;;5096473;28;20519;-80
2021/04/12 11:31:43;;;;;;;1.40;0.90;;;12.00;99.90;;;;;;5091201;28;20248;-80
2021/04/12 11:34:45;;;;;;;2.25;1.00;;;11.50;99.90;;;;;;5089924;28;20568;-82
2021/04/12 11:37:28;;;;;;;1.60;0.98;;;11.00;99.90;;;;;;5075230;28;20192;-81
2021/04/12 11:40:02;;;;;;;2.05;1.10;;;10.50;99.90;;;;;;5075158;28;20167;-82
2021/04/12 11:42:33;;;;;;;1.90;1.30;;;10.10;99.90;;;;;;5075335;28;20195;-81
2021/04/12 11:45:14;;;;;;;3.90;0.90;;;9.80;99.90;;;;;;5074917;28;20207;-80
2021/04/12 11:48:08;;;;;;;2.67;1.50;;;9.70;99.90;;;;;;5073431;28;20215;-82
2021/04/12 11:50:33;;;;;;;1.40;0.90;;;9.90;99.90;;;;;;5074095;28;20168;-80
2021/04/12 11:53:19;;;;;;;1.17;0.70;;;10.20;99.90;;;;;;5075154;28;20487;-81
2021/04/12 11:56:16;;;;;;;5.03;1.83;;;10.70;99.90;;;;;;5073704;28;20218;-78
2021/04/12 11:58:52;;;;;;;1.98;1.00;;;11.40;99.90;;;;;;5056570;28;20234;-80
2021/04/12 12:01:47;;;;;;;1.40;1.05;;;12.00;99.90;;;;;;5084265;28;20182;-80
2021/04/12 12:04:25;;;;;;;1.45;0.80;;;12.50;99.90;;;;;;5088123;28;20190;-80
2021/04/12 12:07:32;;;;;;;1.85;0.75;;;13.10;99.90;;;;;;5072880;28;20224;-79
2021/04/12 12:10:10;;;;;;;2.13;0.80;;;13.40;99.90;;;;;;5034173;28;20180;-80
2021/04/12 12:12:45;;;;;;;2.08;0.90;;;13.40;99.90;;;;;;5074463;28;20283;-81
2021/04/12 12:15:24;;;;;;;2.83;1.38;;;13.30;99.90;;;;;;5086912;28;20233;-80
2021/04/12 12:18:11;;;;;;;1.50;1.00;;;13.20;99.90;;;;;;5094236;28;20221;-80
2021/04/12 12:20:55;;;;;;;2.17;1.00;;;13.30;99.90;;;;;;5093517;28;20255;-79
2021/04/12 12:23:39;;;;;;;2.72;1.00;;;13.10;99.90;;;;;;5093241;28;20218;-80
2021/04/12 12:26:13;;;;;;;2.60;1.40;;;12.80;99.90;;;;;;5094013;28;20187;-80
2021/04/12 12:28:46;;;;;;;2.60;0.90;;;12.60;99.90;;;;;;5093767;28;20531;-79
2021/04/12 12:31:32;;;;;;;2.85;1.05;;;12.40;99.90;;;;;;5086073;28;20202;-80
2021/04/12 12:34:28;;;;;;;1.70;0.98;;;12.50;99.90;;;;;;5093023;28;20167;-80
2021/04/12 12:37:19;;;;;;;1.45;1.00;;;12.40;99.90;;;;;;5092777;28;20598;-84
2021/04/12 12:39:56;;;;;;;1.45;0.70;;;12.30;99.90;;;;;;5088280;28;20178;-84
2021/04/12 12:43:02;;;;;;;1.40;0.80;;;12.40;99.90;;;;;;5085302;28;20184;-82
2021/04/12 12:46:04;;;;;;;2.95;1.67;;;12.40;99.90;;;;;;5083579;28;20164;-80
2021/04/12 12:48:34;;;;;;;2.25;1.48;;;12.40;99.90;;;;;;5099878;28;20170;-79
2021/04/12 12:51:09;;;;;;;1.50;1.00;;;12.50;99.90;;;;;;5093265;28;20168;-80
2021/04/12 12:53:39;;;;;;;1.70;1.50;;;12.50;99.90;;;;;;5078876;28;20159;-80
2021/04/12 12:56:15;;;;;;;2.47;1.00;;;12.40;99.90;;;;;;5093600;28;20251;-79
2021/04/12 12:58:53;;;;;;;1.33;0.93;;;12.30;99.90;;;;;;5075361;28;20183;-78
2021/04/12 13:01:40;;;;;;;2.50;0.70;;;12.20;99.90;;;;;;5071732;28;20704;-78
2021/04/12 13:04:15;;;;;;;3.95;2.25;;;12.10;99.90;;;;;;5072627;28;20168;-78
2021/04/12 13:06:43;;;;;;;4.78;1.70;;;12.00;99.90;;;;;;5071542;28;20281;-78
2021/04/12 13:13:48;;;;;;;2.92;1.30;;;11.80;99.90;;;;;;5102884;28;20171;-80
2021/04/12 13:16:45;;;;;;;2.75;1.52;;;11.70;99.90;;;;;;5073658;28;20248;-78
2021/04/12 13:19:15;;;;;;;2.25;1.50;;;11.60;99.90;;;;;;5070465;28;20635;-81
2021/04/12 13:21:45;;;;;;;5.45;2.30;;;11.40;99.90;;;;;;5089666;28;20210;-81
2021/04/12 13:24:25;;;;;;;3.35;1.90;;;11.40;99.90;;;;;;5085156;28;20236;-82
2021/04/12 13:26:54;;;;;;;3.10;1.60;;;11.30;99.90;;;;;;5092639;28;20191;-79
2021/04/12 13:29:24;;;;;;;2.70;2.25;;;11.30;99.90;;;;;;5090128;28;20177;-81
2021/04/12 13:32:17;;;;;;;1.60;1.25;;;11.20;99.90;;;;;;5088015;28;20220;-82
2021/04/12 13:35:14;;;;;;;1.90;1.58;;;11.20;99.90;;;;;;5091221;28;20187;-78
2021/04/12 13:37:57;;;;;;;2.55;2.17;;;11.20;99.90;;;;;;5096286;28;20203;-82
2021/04/12 13:40:49;;;;;;;1.70;1.42;;;11.20;99.90;;;;;;5119272;28;20580;-80
2021/04/12 13:43:18;;;;;;;3.83;1.55;;;11.20;99.90;;;;;;5093551;28;20199;-77
2021/04/12 13:45:48;;;;;;;1.60;1.38;;;11.20;99.90;;;;;;5096451;28;20164;-83
2021/04/12 13:48:32;;;;;;;3.05;1.45;;;11.30;99.90;;;;;;5085190;28;20192;-81
2021/04/12 13:51:05;;;;;;;2.42;1.60;;;11.40;99.90;;;;;;5085167;28;20179;-83
2021/04/12 13:53:36;;;;;;;1.80;1.20;;;11.60;99.90;;;;;;5093924;28;20202;-81
2021/04/12 13:56:17;;;;;;;2.20;1.40;;;11.80;99.90;;;;;;5100448;28;20167;-80
2021/04/12 13:58:59;;;;;;;2.15;1.95;;;11.90;99.90;;;;;;5097621;28;20201;-77
2021/04/12 14:01:36;;;;;;;3.30;2.40;;;12.10;99.90;;;;;;5095564;28;20176;-78
2021/04/12 14:04:20;;;;;;;2.50;2.05;;;12.10;99.90;;;;;;5080658;28;20168;-77
2021/04/12 14:06:58;;;;;;;2.38;1.80;;;12.20;99.90;;;;;;5071240;28;20282;-77
2021/04/12 14:10:01;;;;;;;2.65;2.45;;;12.10;99.90;;;;;;5073880;28;20171;-86
2021/04/12 14:12:34;;;;;;;3.38;1.73;;;12.10;99.90;;;;;;5069110;28;20199;-83
2021/04/12 14:15:36;;;;;;;3.17;1.85;;;12.10;99.90;;;;;;5083323;28;20168;-82
2021/04/12 14:18:31;;;;;;;2.05;1.60;;;12.00;99.90;;;;;;5044907;28;20200;-82
2021/04/12 14:21:24;;;;;;;1.85;1.52;;;12.00;99.90;;;;;;5025498;28;20271;-82
2021/04/12 14:24:10;;;;;;;1.70;1.55;;;11.80;99.90;;;;;;5079020;28;20172;-81
2021/04/12 14:27:03;;;;;;;4.28;2.42;;;11.70;99.90;;;;;;5080274;28;20200;-80
2021/04/12 14:30:06;;;;;;;2.05;1.80;;;11.60;99.90;;;;;;5097888;28;20171;-79
2021/04/12 14:33:29;;;;;;;2.30;1.73;;;11.60;99.90;;;;;;5077279;28;20246;-81
2021/04/12 14:36:20;;;;;;;2.13;1.33;;;11.60;99.90;;;;;;5050567;28;20175;-85
2021/04/12 14:39:15;;;;;;;2.22;1.90;;;11.70;99.90;;;;;;5034095;28;20238;-85
2021/04/12 14:42:02;;;;;;;2.17;1.42;;;11.80;99.90;;;;;;5055871;28;20185;-79
2021/04/12 14:45:04;;;;;;;3.22;1.30;;;11.80;99.90;;;;;;5080207;28;20465;-80